Time;durP1;ratioP1;P1;durP2;ratioP2;P2;SDS_P1;SDS_P2;PMS_P1;PMS_P2;Temp;Humidity;BMP_temperature;BMP_pressure;BME280_temperature;BME280_humidity;BME280_pressure;Samples;Min_cycle;Max_cycle;Signal;HPM_P1;HPM_P2
2022/10/15 00:02:06;;;;;;;20.90;13.13;;;10.70;99.90;;;;;;4862957;29;19916;-76
2022/10/15 00:04:32;;;;;;;25.95;15.10;;;10.70;99.90;;;;;;4862059;29;20590;-75
2022/10/15 00:06:58;;;;;;;23.58;13.48;;;10.60;99.90;;;;;;4862540;29;20406;-75
2022/10/15 00:09:23;;;;;;;;;;;10.60;99.90;;;;;;4862704;29;20033;-75
2022/10/15 00:11:49;;;;;;;23.38;13.57;;;10.60;99.90;;;;;;4862027;29;19946;-75
2022/10/15 00:14:15;;;;;;;;;;;10.50;99.90;;;;;;4845955;29;20040;-75
2022/10/15 00:16:40;;;;;;;33.30;14.10;;;10.50;99.90;;;;;;4862251;29;20025;-75
2022/10/15 00:19:06;;;;;;;;;;;10.50;99.90;;;;;;4846091;29;20545;-75
2022/10/15 00:21:31;;;;;;;24.25;13.18;;;10.50;99.90;;;;;;4863086;29;19987;-76
2022/10/15 00:23:57;;;;;;;;;;;10.40;99.90;;;;;;4846556;29;20036;-76
2022/10/15 00:26:25;;;;;;;20.63;12.48;;;10.40;99.90;;;;;;4862202;29;20041;-75
2022/10/15 00:28:54;;;;;;;25.85;13.98;;;10.50;99.90;;;;;;4845188;29;20566;-76
2022/10/15 00:31:22;;;;;;;24.90;14.93;;;10.40;99.90;;;;;;4844681;29;20108;-75
2022/10/15 00:33:48;;;;;;;24.13;15.00;;;10.40;99.90;;;;;;4845021;29;20033;-75
2022/10/15 00:36:17;;;;;;;22.77;14.68;;;10.40;99.90;;;;;;4861165;29;20113;-76
2022/10/15 00:38:43;;;;;;;26.27;14.43;;;10.40;99.90;;;;;;4861229;29;20052;-76
2022/10/15 00:41:13;;;;;;;;;;;10.50;99.90;;;;;;4845587;29;20025;-75
2022/10/15 00:43:44;;;;;;;24.23;14.55;;;10.50;99.90;;;;;;4861545;29;19915;-75
2022/10/15 00:46:33;;;;;;;19.10;12.65;;;10.60;99.90;;;;;;4844649;29;20148;-75
2022/10/15 00:49:17;;;;;;;21.42;14.27;;;10.70;99.90;;;;;;4844019;29;20037;-75
2022/10/15 00:51:51;;;;;;;24.42;13.57;;;10.70;99.90;;;;;;4844696;29;20045;-75
2022/10/15 00:54:18;;;;;;;18.13;12.65;;;10.80;99.90;;;;;;4844816;29;20033;-75
2022/10/15 00:56:44;;;;;;;23.33;12.88;;;10.90;99.90;;;;;;4844689;29;20399;-75
2022/10/15 00:59:12;;;;;;;20.17;14.43;;;10.90;99.90;;;;;;4860907;29;20045;-75
2022/10/15 01:01:38;;;;;;;21.45;14.93;;;10.90;99.90;;;;;;4844502;29;20121;-75
2022/10/15 01:04:05;;;;;;;;;;;10.90;99.90;;;;;;4861524;29;20144;-75
2022/10/15 01:06:31;;;;;;;23.43;15.23;;;10.90;99.90;;;;;;4844696;29;20504;-76
2022/10/15 01:08:56;;;;;;;;;;;10.90;99.90;;;;;;4844867;29;20415;-75
2022/10/15 01:11:51;;;;;;;20.13;12.82;;;10.90;99.90;;;;;;4844266;29;19912;-75
2022/10/15 01:14:37;;;;;;;18.88;13.48;;;10.70;99.90;;;;;;4856422;29;20110;-75
2022/10/15 01:17:24;;;;;;;27.05;14.27;;;10.70;99.90;;;;;;4861270;29;20026;-75
2022/10/15 01:20:08;;;;;;;25.52;14.25;;;10.70;99.90;;;;;;4860314;29;20074;-75
2022/10/15 01:22:54;;;;;;;20.38;14.52;;;10.60;99.90;;;;;;4860709;29;20407;-75
2022/10/15 01:25:48;;;;;;;29.25;14.77;;;10.50;99.90;;;;;;4860537;29;20033;-75
2022/10/15 01:28:31;;;;;;;21.55;14.65;;;10.50;99.90;;;;;;4860383;29;20112;-75
2022/10/15 01:31:20;;;;;;;26.67;15.65;;;10.40;99.90;;;;;;4843828;29;20464;-76
2022/10/15 01:34:09;;;;;;;23.63;15.93;;;10.30;99.90;;;;;;4843654;29;20874;-75
2022/10/15 01:37:18;;;;;;;26.17;15.38;;;10.30;99.90;;;;;;4843872;29;20048;-75
2022/10/15 01:40:15;;;;;;;28.73;16.02;;;10.30;99.90;;;;;;4802763;29;20183;-75
2022/10/15 01:42:53;;;;;;;21.73;13.93;;;10.30;99.90;;;;;;4829116;29;20056;-75
2022/10/15 01:45:28;;;;;;;32.90;16.23;;;10.30;99.90;;;;;;4860708;29;20026;-75
2022/10/15 01:47:57;;;;;;;34.50;16.70;;;10.30;99.90;;;;;;4860950;29;20550;-75
2022/10/15 01:50:27;;;;;;;23.42;15.27;;;10.40;99.90;;;;;;4844010;29;20097;-76
2022/10/15 01:52:55;;;;;;;37.88;17.15;;;10.40;99.90;;;;;;4843705;29;20124;-75
2022/10/15 01:55:22;;;;;;;27.95;15.65;;;10.50;99.90;;;;;;4860998;29;20029;-75
2022/10/15 01:57:48;;;;;;;31.92;15.55;;;10.50;99.90;;;;;;4860330;29;20112;-76
2022/10/15 02:00:15;;;;;;;23.77;15.15;;;10.70;99.90;;;;;;4859350;29;20112;-75
2022/10/15 02:02:41;;;;;;;26.13;15.23;;;10.70;99.90;;;;;;4860332;29;20029;-76
2022/10/15 02:05:10;;;;;;;;;;;10.70;99.90;;;;;;4844288;29;20058;-75
2022/10/15 02:07:56;;;;;;;25.48;15.57;;;10.80;99.90;;;;;;4860314;29;20011;-75
2022/10/15 02:10:30;;;;;;;21.27;14.23;;;10.80;99.90;;;;;;4859934;29;20033;-75
2022/10/15 02:13:29;;;;;;;23.63;13.60;;;10.80;99.90;;;;;;4860220;29;20090;-76
2022/10/15 02:16:01;;;;;;;20.52;14.95;;;10.80;99.90;;;;;;4843589;29;20049;-75
2022/10/15 02:18:38;;;;;;;32.25;16.15;;;10.80;99.90;;;;;;4860293;29;20079;-75
2022/10/15 02:21:09;;;;;;;30.08;15.20;;;10.80;99.90;;;;;;4843519;29;20029;-76
2022/10/15 02:23:58;;;;;;;27.30;15.45;;;10.70;99.90;;;;;;4843596;29;20029;-75
2022/10/15 02:26:28;;;;;;;25.67;15.77;;;10.70;99.90;;;;;;4861024;29;20056;-75
2022/10/15 02:28:56;;;;;;;29.17;17.27;;;10.80;99.90;;;;;;4843665;29;20022;-76
2022/10/15 02:31:24;;;;;;;31.23;16.30;;;10.80;99.90;;;;;;4860505;29;20041;-75
2022/10/15 02:33:53;;;;;;;33.35;17.73;;;10.80;99.90;;;;;;4860079;29;20117;-75
2022/10/15 02:36:19;;;;;;;24.25;15.52;;;10.90;99.90;;;;;;4860235;29;20038;-75
2022/10/15 02:38:46;;;;;;;;;;;10.90;99.90;;;;;;4860237;29;20037;-75
2022/10/15 02:41:13;;;;;;;25.48;16.65;;;10.90;99.90;;;;;;4843384;29;19908;-76
2022/10/15 02:43:39;;;;;;;29.27;17.65;;;11.00;99.90;;;;;;4860305;29;20045;-76
2022/10/15 02:46:08;;;;;;;21.17;14.60;;;11.00;99.90;;;;;;4861121;29;20021;-76
2022/10/15 02:48:34;;;;;;;26.95;14.70;;;10.90;99.90;;;;;;4859923;29;20033;-75
2022/10/15 02:50:59;;;;;;;;;;;10.90;99.90;;;;;;4859848;29;20048;-75
2022/10/15 02:53:25;;;;;;;23.85;16.90;;;10.80;99.90;;;;;;4842757;29;19912;-76
2022/10/15 02:55:51;;;;;;;;;;;10.90;99.90;;;;;;4843084;29;20037;-75
2022/10/15 02:58:16;;;;;;;26.17;14.82;;;11.00;99.90;;;;;;4842232;29;19941;-75
2022/10/15 03:00:42;;;;;;;;;;;11.10;99.90;;;;;;4859581;29;20519;-75
2022/10/15 03:03:07;;;;;;;26.08;16.30;;;11.10;99.90;;;;;;4858880;29;19915;-76
2022/10/15 03:05:33;;;;;;;;;;;11.10;99.90;;;;;;4842431;29;20464;-75
2022/10/15 03:07:59;;;;;;;24.02;15.27;;;11.10;99.90;;;;;;4842202;29;20330;-75
2022/10/15 03:10:25;;;;;;;;;;;11.10;99.90;;;;;;4843041;29;20040;-75
2022/10/15 03:12:50;;;;;;;23.40;15.50;;;11.10;99.90;;;;;;4858682;29;20715;-75
2022/10/15 03:15:16;;;;;;;;;;;11.10;99.90;;;;;;4859208;29;20046;-76
2022/10/15 03:17:41;;;;;;;27.83;17.20;;;11.10;99.90;;;;;;4842391;29;20007;-76
2022/10/15 03:20:07;;;;;;;;;;;11.10;99.90;;;;;;4859169;29;20518;-75
2022/10/15 03:22:33;;;;;;;23.35;15.85;;;11.10;99.90;;;;;;4858472;29;19912;-75
2022/10/15 03:24:58;;;;;;;;;;;11.10;99.90;;;;;;4860026;29;20093;-75
2022/10/15 03:27:24;;;;;;;24.52;15.63;;;11.00;99.90;;;;;;4842480;29;19908;-75
2022/10/15 03:29:49;;;;;;;;;;;10.90;99.90;;;;;;4859002;29;20041;-75
2022/10/15 03:32:15;;;;;;;31.23;17.77;;;10.90;99.90;;;;;;4858910;29;20060;-75
2022/10/15 03:34:41;;;;;;;;;;;10.80;99.90;;;;;;4859095;29;20044;-75
2022/10/15 03:37:07;;;;;;;27.33;15.43;;;10.80;99.90;;;;;;4859037;29;20310;-76
2022/10/15 03:39:32;;;;;;;;;;;10.70;99.90;;;;;;4859270;29;20532;-76
2022/10/15 03:41:58;;;;;;;29.35;16.27;;;10.60;99.90;;;;;;4857665;29;19912;-75
2022/10/15 03:44:24;;;;;;;;;;;10.60;99.90;;;;;;4859052;29;20042;-75
2022/10/15 03:46:50;;;;;;;28.15;18.85;;;10.60;99.90;;;;;;4858567;29;19927;-75
2022/10/15 03:49:16;;;;;;;;;;;10.50;99.90;;;;;;4842860;29;20052;-75
2022/10/15 03:51:41;;;;;;;28.23;18.50;;;10.50;99.90;;;;;;4858857;29;20015;-75
2022/10/15 03:54:07;;;;;;;;;;;10.40;99.90;;;;;;4859254;29;20037;-76
2022/10/15 03:56:32;;;;;;;26.20;17.50;;;10.40;99.90;;;;;;4842404;29;19912;-74
2022/10/15 03:58:58;;;;;;;;;;;10.40;99.90;;;;;;4858075;29;20048;-75
2022/10/15 04:01:23;;;;;;;32.83;19.88;;;10.30;99.90;;;;;;4857783;29;19919;-75
2022/10/15 04:03:52;;;;;;;;;;;10.20;99.90;;;;;;4858729;29;20074;-75
2022/10/15 04:06:18;;;;;;;26.85;18.70;;;10.30;99.90;;;;;;4841935;29;19920;-75
2022/10/15 04:08:43;;;;;;;;;;;10.20;99.90;;;;;;4859051;29;20033;-76
2022/10/15 04:11:09;;;;;;;39.88;20.73;;;10.30;99.90;;;;;;4841908;29;20002;-75
2022/10/15 04:13:34;;;;;;;;;;;10.20;99.90;;;;;;4859302;29;20429;-75
2022/10/15 04:16:04;;;;;;;34.78;22.95;;;10.20;99.90;;;;;;4841935;29;19912;-75
2022/10/15 04:18:29;;;;;;;38.25;23.30;;;10.20;99.90;;;;;;4841898;29;20037;-74
2022/10/15 04:20:58;;;;;;;;;;;10.20;99.90;;;;;;4858541;29;20040;-75
2022/10/15 04:23:24;;;;;;;32.40;20.88;;;10.20;99.90;;;;;;4841321;29;20619;-76
2022/10/15 04:25:49;;;;;;;;;;;10.20;99.90;;;;;;4845566;29;20033;-75
2022/10/15 04:28:15;;;;;;;27.67;19.85;;;10.10;99.90;;;;;;4861981;29;19912;-75
2022/10/15 04:30:40;;;;;;;;;;;10.10;99.90;;;;;;4851971;29;20048;-76
2022/10/15 04:33:06;;;;;;;31.60;20.95;;;10.10;99.90;;;;;;4857791;29;20015;-75
2022/10/15 04:35:33;;;;;;;;;;;10.00;99.90;;;;;;4841967;29;20041;-76
2022/10/15 04:37:59;;;;;;;27.00;18.52;;;10.10;99.90;;;;;;4826219;29;20007;-75
2022/10/15 04:40:26;;;;;;;33.83;20.23;;;10.10;99.90;;;;;;4841484;29;20046;-75
2022/10/15 04:42:51;;;;;;;30.55;20.52;;;10.00;99.90;;;;;;4842079;29;20030;-76
2022/10/15 04:45:17;;;;;;;;;;;10.00;99.90;;;;;;4826522;29;20403;-75
2022/10/15 04:47:43;;;;;;;31.20;20.42;;;10.10;99.90;;;;;;4842843;29;20394;-75
2022/10/15 04:50:09;;;;;;;39.92;20.80;;;10.00;99.90;;;;;;4843110;29;20030;-75
2022/10/15 04:52:35;;;;;;;;;;;10.00;99.90;;;;;;4843153;29;20036;-75
2022/10/15 04:55:02;;;;;;;32.88;20.42;;;10.10;99.90;;;;;;4842511;29;19943;-75
2022/10/15 04:57:27;;;;;;;27.63;20.45;;;10.10;99.90;;;;;;4826380;29;20406;-75
2022/10/15 04:59:53;;;;;;;;;;;10.20;99.90;;;;;;4843822;29;20157;-75
2022/10/15 05:02:19;;;;;;;30.52;18.17;;;10.30;99.90;;;;;;4826445;29;20275;-75
2022/10/15 05:04:44;;;;;;;;;;;10.30;99.90;;;;;;4843270;29;20069;-76
2022/10/15 05:07:10;;;;;;;32.38;18.85;;;10.30;99.90;;;;;;4827969;29;19915;-75
2022/10/15 05:09:35;;;;;;;;;;;10.30;99.90;;;;;;4828206;29;20042;-75
2022/10/15 05:12:01;;;;;;;33.00;19.83;;;10.30;99.90;;;;;;4841333;29;19920;-75
2022/10/15 05:14:27;;;;;;;;;;;10.30;99.90;;;;;;4842031;29;20102;-74
2022/10/15 05:16:52;;;;;;;29.15;18.75;;;10.30;99.90;;;;;;4842080;29;19983;-76
2022/10/15 05:19:18;;;;;;;;;;;10.30;99.90;;;;;;4826196;29;20040;-75
2022/10/15 05:21:43;;;;;;;33.72;20.73;;;10.30;99.90;;;;;;4842485;29;20362;-75
2022/10/15 05:24:09;;;;;;;;;;;10.30;99.90;;;;;;4825469;29;20042;-75
2022/10/15 05:26:35;;;;;;;35.83;21.27;;;10.40;99.90;;;;;;4841185;29;19964;-75
2022/10/15 05:29:00;;;;;;;;;;;10.30;99.90;;;;;;4841328;29;20037;-75
2022/10/15 05:31:28;;;;;;;48.00;24.50;;;10.40;99.90;;;;;;4842442;29;19908;-75
2022/10/15 05:33:54;;;;;;;41.88;23.13;;;10.40;99.90;;;;;;4842212;29;20033;-75
2022/10/15 05:36:27;;;;;;;;;;;10.40;99.90;;;;;;4840793;29;20499;-76
2022/10/15 05:39:01;;;;;;;37.08;22.85;;;10.40;99.90;;;;;;4841877;29;19929;-76
2022/10/15 05:41:28;;;;;;;33.85;21.55;;;10.50;99.90;;;;;;4842526;29;20520;-75
2022/10/15 05:43:55;;;;;;;32.95;21.48;;;10.60;99.90;;;;;;4842013;29;20061;-76
2022/10/15 05:46:21;;;;;;;31.20;20.98;;;10.70;99.90;;;;;;4841815;29;20026;-75
2022/10/15 05:48:49;;;;;;;41.25;23.60;;;10.80;99.90;;;;;;4825660;29;20026;-75
2022/10/15 05:51:15;;;;;;;31.05;21.02;;;10.80;99.90;;;;;;4841010;29;20092;-75
2022/10/15 05:53:42;;;;;;;42.85;27.83;;;10.90;99.90;;;;;;4842014;29;20121;-75
2022/10/15 05:56:08;;;;;;;38.00;23.83;;;11.10;99.90;;;;;;4841186;29;20061;-75
2022/10/15 05:58:35;;;;;;;37.20;18.75;;;11.10;99.90;;;;;;4841297;29;20044;-75
2022/10/15 06:01:03;;;;;;;29.13;18.92;;;11.20;99.90;;;;;;4842551;29;20459;-76
2022/10/15 06:03:28;;;;;;;25.40;16.70;;;11.40;99.90;;;;;;4841556;29;20037;-75
2022/10/15 06:05:54;;;;;;;;;;;11.50;99.90;;;;;;4840816;29;20026;-76
2022/10/15 06:08:20;;;;;;;29.88;16.20;;;11.70;99.90;;;;;;4825626;29;19958;-76
2022/10/15 06:10:47;;;;;;;24.40;15.13;;;11.80;99.90;;;;;;4840481;29;20034;-75
2022/10/15 06:13:14;;;;;;;25.25;15.85;;;11.90;99.90;;;;;;4842404;29;20030;-76
2022/10/15 06:15:44;;;;;;;30.70;15.38;;;12.00;99.90;;;;;;4826503;29;20022;-76
2022/10/15 06:18:15;;;;;;;25.48;14.38;;;12.20;99.90;;;;;;4843141;29;20030;-76
2022/10/15 06:20:41;;;;;;;25.63;13.60;;;12.30;99.90;;;;;;4843472;29;20599;-76
2022/10/15 06:23:09;;;;;;;22.88;14.95;;;12.50;99.90;;;;;;4843125;29;20034;-76
2022/10/15 06:25:34;;;;;;;15.63;11.90;;;12.60;99.90;;;;;;4843786;29;20059;-76
2022/10/15 06:28:01;;;;;;;;;;;12.60;99.90;;;;;;4843890;29;20041;-76
2022/10/15 06:30:26;;;;;;;22.03;15.17;;;12.70;99.90;;;;;;4826616;29;19924;-75
2022/10/15 06:32:52;;;;;;;24.50;14.60;;;12.80;99.90;;;;;;4843676;29;20046;-76
2022/10/15 06:35:19;;;;;;;;;;;12.80;99.90;;;;;;4843508;29;20036;-75
2022/10/15 06:37:45;;;;;;;30.20;14.70;;;12.80;99.90;;;;;;4826641;29;19912;-76
2022/10/15 06:40:11;;;;;;;;;;;12.70;99.90;;;;;;4842125;29;20170;-75
2022/10/15 06:42:36;;;;;;;28.05;16.88;;;12.80;99.90;;;;;;4842574;29;19912;-75
2022/10/15 06:45:02;;;;;;;;;;;12.80;99.90;;;;;;4825490;29;20042;-76
2022/10/15 06:47:28;;;;;;;26.40;15.45;;;12.70;99.90;;;;;;4840956;29;19920;-75
2022/10/15 06:49:53;;;;;;;;;;;12.80;99.90;;;;;;4825713;29;20415;-75
2022/10/15 06:52:19;;;;;;;19.80;12.63;;;13.00;99.90;;;;;;4841484;29;19912;-76
2022/10/15 06:54:45;;;;;;;26.52;14.63;;;13.30;99.90;;;;;;4841012;29;20026;-75
2022/10/15 06:57:10;;;;;;;;;;;13.70;99.90;;;;;;4839325;29;20038;-76
2022/10/15 06:59:36;;;;;;;31.23;14.80;;;14.20;99.90;;;;;;4839969;29;19923;-75
2022/10/15 07:02:02;;;;;;;;;;;14.60;99.90;;;;;;4839027;29;20041;-76
2022/10/15 07:04:27;;;;;;;29.67;13.60;;;14.90;99.90;;;;;;4840422;29;19916;-75
2022/10/15 07:06:53;;;;;;;;;;;15.30;99.90;;;;;;4840895;29;20113;-75
2022/10/15 07:09:19;;;;;;;22.70;14.18;;;15.50;99.90;;;;;;4840570;29;19909;-75
2022/10/15 07:11:45;;;;;;;22.83;12.63;;;15.70;99.90;;;;;;4824347;29;20042;-76
2022/10/15 07:14:10;;;;;;;28.00;13.82;;;15.90;99.90;;;;;;4840031;29;20049;-75
2022/10/15 07:16:38;;;;;;;17.13;12.07;;;15.90;99.90;;;;;;4824214;29;20037;-75
2022/10/15 07:19:03;;;;;;;18.95;10.85;;;16.00;99.90;;;;;;4840148;29;20053;-75
2022/10/15 07:21:29;;;;;;;21.50;10.82;;;16.10;99.90;;;;;;4840561;29;20030;-75
2022/10/15 07:23:55;;;;;;;18.45;10.15;;;16.10;99.90;;;;;;4842447;29;20117;-76
2022/10/15 07:26:20;;;;;;;21.77;11.65;;;16.20;99.90;;;;;;4841082;29;20030;-76
2022/10/15 07:28:46;;;;;;;16.45;10.63;;;16.40;99.90;;;;;;4824578;29;20060;-75
2022/10/15 07:31:11;;;;;;;15.90;10.88;;;16.50;99.90;;;;;;4840452;29;20151;-75
2022/10/15 07:33:37;;;;;;;17.50;10.50;;;16.50;99.90;;;;;;4839995;29;20069;-75
2022/10/15 07:36:05;;;;;;;17.17;10.07;;;16.50;99.90;;;;;;4823398;29;20030;-75
2022/10/15 07:38:31;;;;;;;13.07;9.88;;;16.50;99.90;;;;;;4837673;29;20038;-75
2022/10/15 07:41:02;;;;;;;15.13;10.48;;;16.60;99.90;;;;;;4824187;29;20049;-75
2022/10/15 07:43:27;;;;;;;18.75;11.00;;;16.60;99.90;;;;;;4840927;29;20082;-76
2022/10/15 07:45:53;;;;;;;30.23;12.63;;;16.70;99.90;;;;;;4841099;29;20038;-77
2022/10/15 07:48:19;;;;;;;20.67;11.93;;;16.90;99.90;;;;;;4823596;29;20062;-76
2022/10/15 07:50:45;;;;;;;16.65;10.25;;;16.80;99.90;;;;;;4840577;29;20046;-76
2022/10/15 07:53:11;;;;;;;21.58;11.32;;;16.80;99.90;;;;;;4839154;29;20026;-76
2022/10/15 07:55:37;;;;;;;27.40;14.20;;;16.80;99.90;;;;;;4839136;29;20538;-76
2022/10/15 07:58:04;;;;;;;23.60;13.10;;;16.70;99.90;;;;;;4824359;29;20058;-75
2022/10/15 08:00:31;;;;;;;16.60;11.23;;;16.60;99.90;;;;;;4842912;29;20878;-76
2022/10/15 08:02:57;;;;;;;19.23;9.95;;;16.80;99.90;;;;;;4827002;29;20033;-76
2022/10/15 08:05:23;;;;;;;24.10;9.98;;;16.90;99.90;;;;;;4843523;29;20033;-75
2022/10/15 08:07:49;;;;;;;23.73;9.55;;;17.10;99.90;;;;;;4826935;29;20531;-76
2022/10/15 08:10:14;;;;;;;16.45;9.82;;;17.40;99.90;;;;;;4842247;29;20022;-77
2022/10/15 08:12:40;;;;;;;17.23;9.35;;;17.90;99.90;;;;;;4841147;29;20542;-77
2022/10/15 08:15:06;;;;;;;18.65;11.30;;;18.40;99.90;;;;;;4839311;29;20038;-81
2022/10/15 08:17:32;;;;;;;22.08;10.88;;;19.00;99.90;;;;;;4823905;29;20403;-81
2022/10/15 08:19:57;;;;;;;18.50;10.38;;;19.60;99.90;;;;;;4840609;29;20046;-83
2022/10/15 08:22:23;;;;;;;18.40;10.18;;;20.10;99.90;;;;;;4839303;29;20033;-82
2022/10/15 08:24:49;;;;;;;18.50;11.32;;;20.30;99.90;;;;;;4840634;29;20046;-81
2022/10/15 08:27:14;;;;;;;19.52;10.68;;;20.60;99.90;;;;;;4840695;29;20029;-83
2022/10/15 08:29:40;;;;;;;23.20;9.60;;;21.00;99.50;;;;;;4840538;29;20075;-79
2022/10/15 08:32:05;;;;;;;20.88;10.82;;;21.30;99.10;;;;;;4823947;29;20048;-79
2022/10/15 08:34:31;;;;;;;16.88;9.75;;;21.30;98.50;;;;;;4823685;29;20073;-83
2022/10/15 08:36:57;;;;;;;16.58;9.55;;;21.60;98.30;;;;;;4839362;29;20036;-79
2022/10/15 08:39:22;;;;;;;21.88;10.07;;;22.10;97.70;;;;;;4838957;29;20484;-82
2022/10/15 08:41:52;;;;;;;21.30;10.43;;;22.50;96.30;;;;;;4823542;29;20026;-80
2022/10/15 08:44:25;;;;;;;17.10;10.93;;;22.70;95.70;;;;;;4823508;29;20479;-80
2022/10/15 08:47:32;;;;;;;14.70;10.40;;;23.10;94.70;;;;;;4840110;29;20125;-80
2022/10/15 08:50:00;;;;;;;14.68;8.85;;;22.90;94.50;;;;;;4830370;29;20041;-82
2022/10/15 08:52:44;;;;;;;17.23;9.30;;;22.90;94.40;;;;;;4823425;29;20052;-82
2022/10/15 08:55:15;;;;;;;17.15;9.27;;;22.70;92.20;;;;;;4840005;29;20022;-80
2022/10/15 08:58:18;;;;;;;17.13;10.10;;;22.20;92.80;;;;;;4823395;29;20038;-82
2022/10/15 09:01:05;;;;;;;15.20;9.27;;;21.90;93.60;;;;;;4838565;29;20038;-81
2022/10/15 09:03:50;;;;;;;19.30;9.88;;;21.80;94.70;;;;;;4839649;29;20045;-80
2022/10/15 09:06:36;;;;;;;14.60;9.73;;;21.80;93.30;;;;;;4839524;29;20530;-84
2022/10/15 09:09:18;;;;;;;16.15;9.88;;;21.50;93.70;;;;;;4823111;29;20554;-80
2022/10/15 09:12:01;;;;;;;16.35;8.90;;;21.60;94.50;;;;;;4838598;29;20038;-84
2022/10/15 09:14:34;;;;;;;15.40;8.23;;;22.10;93.80;;;;;;4839620;29;20034;-83
2022/10/15 09:17:05;;;;;;;11.40;8.35;;;22.30;92.80;;;;;;4839825;29;20085;-83
2022/10/15 09:19:33;;;;;;;13.10;8.10;;;22.80;92.80;;;;;;4823057;29;20038;-81
2022/10/15 09:22:01;;;;;;;15.77;8.43;;;23.00;91.80;;;;;;4823051;29;20081;-82
2022/10/15 09:24:28;;;;;;;15.60;7.03;;;23.30;91.00;;;;;;4838186;29;20152;-79
2022/10/15 09:27:26;;;;;;;12.57;7.93;;;23.50;90.80;;;;;;4823197;29;20033;-77
2022/10/15 09:30:24;;;;;;;14.20;8.45;;;23.60;91.00;;;;;;4839528;29;20071;-82
2022/10/15 09:33:00;;;;;;;17.58;8.35;;;23.60;89.40;;;;;;4802643;29;20042;-80
2022/10/15 09:35:39;;;;;;;15.15;7.85;;;23.40;89.40;;;;;;4837779;29;20034;-81
2022/10/15 09:38:26;;;;;;;19.88;8.10;;;23.10;88.90;;;;;;4822715;29;20529;-79
2022/10/15 09:41:00;;;;;;;;;;;23.10;89.20;;;;;;4823155;29;20044;-83
2022/10/15 09:43:33;;;;;;;16.83;8.73;;;22.60;88.80;;;;;;4822634;29;19912;-79
2022/10/15 09:46:00;;;;;;;13.52;8.57;;;22.20;90.20;;;;;;4838337;29;20385;-80
2022/10/15 09:48:29;;;;;;;21.70;8.63;;;21.60;91.30;;;;;;4822460;29;20356;-81
2022/10/15 09:51:01;;;;;;;12.18;7.50;;;21.40;92.10;;;;;;4839038;29;20542;-83
2022/10/15 09:53:44;;;;;;;15.75;8.60;;;21.70;92.80;;;;;;4853145;29;20049;-83
2022/10/15 09:56:20;;;;;;;14.90;7.70;;;22.30;92.20;;;;;;4838831;29;20025;-81
2022/10/15 09:58:57;;;;;;;17.67;8.82;;;23.00;91.50;;;;;;4822121;29;20128;-83
2022/10/15 10:01:28;;;;;;;15.00;8.95;;;22.90;90.90;;;;;;4839049;29;20030;-83
2022/10/15 10:04:12;;;;;;;16.35;8.82;;;22.50;90.80;;;;;;4838629;29;20108;-83
2022/10/15 10:06:49;;;;;;;14.40;8.40;;;22.00;91.60;;;;;;4838806;29;20030;-81
2022/10/15 10:09:30;;;;;;;14.48;8.30;;;21.60;92.80;;;;;;4838629;29;20030;-80
2022/10/15 10:12:01;;;;;;;22.85;9.27;;;21.30;92.60;;;;;;4838830;29;20034;-77
2022/10/15 10:14:39;;;;;;;18.05;9.02;;;20.80;93.80;;;;;;4839598;29;20184;-77
2022/10/15 10:17:07;;;;;;;12.25;8.32;;;20.40;94.90;;;;;;4822448;29;20044;-75
2022/10/15 10:19:33;;;;;;;18.27;10.77;;;20.10;95.80;;;;;;4838338;29;20068;-74
2022/10/15 10:22:16;;;;;;;17.48;9.45;;;19.90;96.10;;;;;;4822062;29;20142;-73
2022/10/15 10:24:41;;;;;;;16.77;8.18;;;19.60;97.20;;;;;;4839777;29;20504;-73
2022/10/15 10:27:23;;;;;;;22.73;8.98;;;19.40;98.40;;;;;;4838595;29;20030;-75
2022/10/15 10:30:12;;;;;;;17.83;9.10;;;19.40;99.10;;;;;;4839149;29;20448;-75
2022/10/15 10:32:38;;;;;;;13.93;7.85;;;19.30;98.50;;;;;;4839664;29;20030;-75
2022/10/15 10:35:04;;;;;;;14.85;8.18;;;19.40;99.70;;;;;;4822801;29;20045;-74
2022/10/15 10:37:41;;;;;;;11.90;7.40;;;19.40;99.40;;;;;;4839056;29;20049;-75
2022/10/15 10:40:27;;;;;;;13.07;7.88;;;19.50;99.20;;;;;;4839416;29;20049;-75
2022/10/15 10:43:25;;;;;;;16.10;8.00;;;19.40;99.30;;;;;;4839013;29;20113;-74
2022/10/15 10:46:02;;;;;;;11.35;6.75;;;19.10;99.50;;;;;;4838731;29;20064;-75
2022/10/15 10:48:38;;;;;;;13.45;7.72;;;19.00;99.90;;;;;;4837786;29;20604;-75
2022/10/15 10:51:09;;;;;;;10.43;6.50;;;19.00;99.90;;;;;;4839764;29;20030;-75
2022/10/15 10:54:01;;;;;;;14.10;6.15;;;18.80;99.90;;;;;;4839519;29;20038;-75
2022/10/15 10:56:38;;;;;;;9.13;5.20;;;18.80;99.90;;;;;;4836574;29;20046;-76
2022/10/15 10:59:29;;;;;;;12.40;6.32;;;18.70;99.90;;;;;;4838714;29;20101;-76
2022/10/15 11:01:58;;;;;;;13.57;6.28;;;18.70;99.90;;;;;;4844298;29;20029;-75
2022/10/15 11:04:26;;;;;;;10.40;5.40;;;18.70;99.90;;;;;;4857904;29;20045;-75
2022/10/15 11:07:12;;;;;;;13.75;6.03;;;18.70;99.90;;;;;;4839569;29;20127;-75
2022/10/15 11:09:58;;;;;;;16.25;6.82;;;18.70;99.90;;;;;;4830963;29;20038;-75
2022/10/15 11:12:27;;;;;;;13.25;6.22;;;18.80;99.90;;;;;;4838976;29;20070;-76
2022/10/15 11:14:59;;;;;;;12.82;5.47;;;18.80;99.90;;;;;;4822266;29;20030;-76
2022/10/15 11:17:49;;;;;;;10.98;4.30;;;18.80;99.90;;;;;;4822648;29;20556;-76
2022/10/15 11:20:24;;;;;;;17.45;4.93;;;18.80;99.90;;;;;;4822721;29;20049;-76
2022/10/15 11:23:11;;;;;;;12.70;5.60;;;18.90;99.90;;;;;;4845369;29;20033;-75
2022/10/15 11:25:54;;;;;;;11.10;4.80;;;19.00;99.90;;;;;;4841142;29;20037;-76
2022/10/15 11:28:58;;;;;;;9.25;3.63;;;19.20;99.50;;;;;;4840174;29;20037;-75
2022/10/15 11:31:47;;;;;;;12.20;4.28;;;19.40;98.10;;;;;;4857611;29;20033;-76
2022/10/15 11:34:30;;;;;;;15.82;4.07;;;19.50;97.80;;;;;;4838049;29;20041;-77
2022/10/15 11:37:26;;;;;;;6.35;2.78;;;19.70;96.80;;;;;;4844615;29;20037;-76
2022/10/15 11:40:17;;;;;;;7.60;4.28;;;19.70;96.40;;;;;;4844716;29;20048;-76
2022/10/15 11:42:55;;;;;;;9.93;3.53;;;19.80;95.60;;;;;;4860825;29;20052;-76
2022/10/15 11:45:42;;;;;;;8.48;3.40;;;19.70;95.60;;;;;;4844875;29;20029;-76
2022/10/15 11:48:20;;;;;;;6.90;3.85;;;19.70;95.70;;;;;;4844435;29;20082;-75
2022/10/15 11:50:54;;;;;;;6.65;3.60;;;19.80;95.10;;;;;;4844990;29;20491;-76
2022/10/15 11:53:52;;;;;;;6.25;3.58;;;19.80;95.60;;;;;;4844484;29;20029;-76
2022/10/15 11:56:29;;;;;;;7.13;3.30;;;19.80;95.60;;;;;;4844254;29;20041;-76
2022/10/15 11:59:18;;;;;;;6.72;3.38;;;19.90;95.10;;;;;;4844163;29;20030;-76
2022/10/15 12:01:59;;;;;;;7.88;3.28;;;20.00;94.60;;;;;;4844202;29;20046;-76
2022/10/15 12:04:47;;;;;;;15.75;3.85;;;20.10;95.10;;;;;;4860261;29;20030;-77
2022/10/15 12:07:20;;;;;;;6.82;4.10;;;20.20;94.40;;;;;;4844162;29;20112;-75
2022/10/15 12:09:52;;;;;;;17.23;3.95;;;20.40;93.70;;;;;;4844589;29;20037;-76
2022/10/15 12:12:43;;;;;;;8.88;3.55;;;20.40;93.90;;;;;;4861192;29;20037;-76
2022/10/15 12:15:38;;;;;;;11.75;4.32;;;20.40;94.30;;;;;;4845870;29;20420;-78
2022/10/15 12:18:28;;;;;;;10.20;3.80;;;20.40;93.80;;;;;;4860603;29;20033;-76
2022/10/15 12:20:54;;;;;;;13.02;4.10;;;20.30;94.00;;;;;;4837795;29;20819;-75
2022/10/15 12:23:40;;;;;;;13.40;4.03;;;20.20;94.40;;;;;;4843041;29;20148;-74
2022/10/15 12:26:24;;;;;;;5.35;3.13;;;20.20;94.10;;;;;;4843639;29;20033;-75
2022/10/15 12:28:54;;;;;;;10.23;3.15;;;20.20;94.20;;;;;;4844062;29;20423;-75
2022/10/15 12:31:20;;;;;;;8.75;3.17;;;20.00;93.90;;;;;;4860179;29;20062;-75
2022/10/15 12:33:53;;;;;;;9.80;3.78;;;19.90;94.20;;;;;;4844227;29;20068;-77
2022/10/15 12:36:18;;;;;;;10.85;3.63;;;19.90;94.10;;;;;;4843198;29;20037;-75
2022/10/15 12:39:06;;;;;;;6.97;3.47;;;19.90;94.60;;;;;;4859654;29;20025;-75
2022/10/15 12:41:40;;;;;;;6.72;2.65;;;19.80;93.90;;;;;;4859713;29;20064;-76
2022/10/15 12:44:19;;;;;;;6.85;3.92;;;19.80;94.50;;;;;;4858998;29;20070;-76
2022/10/15 12:46:45;;;;;;;9.40;3.15;;;19.80;94.40;;;;;;4842917;29;20132;-77
2022/10/15 12:49:26;;;;;;;12.57;3.55;;;19.70;94.40;;;;;;4859226;29;20047;-75
2022/10/15 12:51:55;;;;;;;12.20;3.28;;;19.70;94.20;;;;;;4859884;29;20769;-76
2022/10/15 12:54:45;;;;;;;9.02;3.97;;;19.70;94.40;;;;;;4840467;29;20033;-75
2022/10/15 12:57:29;;;;;;;21.55;3.60;;;19.70;95.10;;;;;;4859968;29;20100;-76
2022/10/15 13:00:00;;;;;;;7.57;3.70;;;19.70;94.10;;;;;;4859812;29;20047;-75
2022/10/15 13:02:34;;;;;;;10.73;3.03;;;19.70;93.80;;;;;;4843173;29;20137;-75
2022/10/15 13:05:00;;;;;;;7.07;3.22;;;19.60;93.70;;;;;;4860515;29;20041;-75
2022/10/15 13:07:25;;;;;;;7.75;2.95;;;19.60;93.10;;;;;;4860210;29;20030;-76
2022/10/15 13:09:51;;;;;;;4.55;2.80;;;19.70;92.70;;;;;;4859504;29;20671;-74
2022/10/15 13:12:25;;;;;;;12.98;3.10;;;19.60;92.10;;;;;;4859443;29;20410;-75